KALM

Alamogordo-White Sands Regional Airport

Alamogordo, New Mexico, USA
METAR KALM 200655Z AUTO 17015G20KT 10SM OVC070 12/02 A2982 RMK AO2
Observed Flight Rules
Feb-20 @ 06:55 UTC (21 minutes ago) Visual Flight Rules
Wind Visibility Clouds
170° at 15 knots
 Gusting to 20 knots
10 miles
  • Overcast at 7,000' AGL
Temperatures Readings
Current 12°C / 54°F
Dewpoint 2°C / 36°F
Humidity 51%
Altimeter 29.82" Hg
Pressure 1010 hPa
Elevation 1279
METAR KALM 200655Z AUTO 17015G20KT 10SM OVC070 12/02 A2982 RMK AO2
Observed Flight Rules
Feb-20 @ 06:55 UTC
(21 minutes ago)
VFR
Wind Visibility
170° at 15 knots
 Gusting to 20 knots
10 miles
Clouds
  • Overcast at 7,000' AGL
Temperature Dewpoint
12°C / 54°F 2°C / 36°F
Humidity Altimeter Pressure
51% 29.82" Hg 1010 hPa